sensor_id;sensor_type;location;lat;lon;timestamp;pressure;altitude;pressure_sealevel;temperature;humidity
70053;BME280;57398;52.032;4.376;2023-02-12T00:02:22;104053.81;;;6.65;nan
70053;BME280;57398;52.032;4.376;2023-02-12T00:05:12;104049.09;;;6.59;nan
70053;BME280;57398;52.032;4.376;2023-02-12T00:08:02;104047.47;;;6.58;nan
70053;BME280;57398;52.032;4.376;2023-02-12T00:10:50;104054.38;;;6.57;nan
70053;BME280;57398;52.032;4.376;2023-02-12T00:13:39;104045.56;;;6.48;nan
70053;BME280;57398;52.032;4.376;2023-02-12T00:16:28;104054.16;;;6.60;nan
70053;BME280;57398;52.032;4.376;2023-02-12T00:19:16;104054.38;;;6.57;nan
70053;BME280;57398;52.032;4.376;2023-02-12T00:22:05;104050.72;;;6.48;nan
70053;BME280;57398;52.032;4.376;2023-02-12T00:24:54;104058.66;;;6.45;nan
70053;BME280;57398;52.032;4.376;2023-02-12T00:27:42;104051.53;;;6.49;nan
70053;BME280;57398;52.032;4.376;2023-02-12T00:30:30;104046.38;;;6.49;nan
70053;BME280;57398;52.032;4.376;2023-02-12T00:33:18;104062.91;;;6.46;nan
70053;BME280;57398;52.032;4.376;2023-02-12T00:36:08;104061.25;;;6.45;nan
70053;BME280;57398;52.032;4.376;2023-02-12T00:38:58;104057.94;;;6.43;nan
70053;BME280;57398;52.032;4.376;2023-02-12T00:41:46;104055.59;;;6.40;nan
70053;BME280;57398;52.032;4.376;2023-02-12T00:44:34;104058.41;;;6.37;nan
70053;BME280;57398;52.032;4.376;2023-02-12T00:47:23;104059.94;;;6.40;nan
70053;BME280;57398;52.032;4.376;2023-02-12T00:50:11;104055.94;;;6.36;nan
70053;BME280;57398;52.032;4.376;2023-02-12T00:52:59;104057.41;;;6.27;nan
70053;BME280;57398;52.032;4.376;2023-02-12T00:55:49;104055.41;;;6.19;nan
70053;BME280;57398;52.032;4.376;2023-02-12T00:58:37;104053.72;;;6.18;nan
70053;BME280;57398;52.032;4.376;2023-02-12T01:01:25;104051.16;;;6.18;nan
70053;BME280;57398;52.032;4.376;2023-02-12T01:04:13;104058.78;;;6.20;nan
70053;BME280;57398;52.032;4.376;2023-02-12T01:07:02;104053.53;;;6.21;nan
70053;BME280;57398;52.032;4.376;2023-02-12T01:09:50;104040.28;;;6.26;nan
70053;BME280;57398;52.032;4.376;2023-02-12T01:12:39;104047.09;;;6.27;nan
70053;BME280;57398;52.032;4.376;2023-02-12T01:15:28;104047.91;;;6.27;nan
70053;BME280;57398;52.032;4.376;2023-02-12T01:18:16;104049.66;;;6.27;nan
70053;BME280;57398;52.032;4.376;2023-02-12T01:21:09;104053.91;;;6.28;nan
70053;BME280;57398;52.032;4.376;2023-02-12T01:23:57;104045.31;;;6.27;nan
70053;BME280;57398;52.032;4.376;2023-02-12T01:26:46;104043.91;;;6.23;nan
70053;BME280;57398;52.032;4.376;2023-02-12T01:29:35;104046.50;;;6.23;nan
70053;BME280;57398;52.032;4.376;2023-02-12T01:32:25;104040.28;;;6.26;nan
70053;BME280;57398;52.032;4.376;2023-02-12T01:35:14;104037.91;;;6.23;nan
70053;BME280;57398;52.032;4.376;2023-02-12T01:38:02;104041.44;;;6.22;nan
70053;BME280;57398;52.032;4.376;2023-02-12T01:40:50;104035.00;;;6.27;nan
70053;BME280;57398;52.032;4.376;2023-02-12T01:43:39;104032.66;;;6.24;nan
70053;BME280;57398;52.032;4.376;2023-02-12T01:46:29;104038.03;;;6.21;nan
70053;BME280;57398;52.032;4.376;2023-02-12T01:49:20;104039.91;;;6.19;nan
70053;BME280;57398;52.032;4.376;2023-02-12T01:52:14;104048.56;;;6.18;nan
70053;BME280;57398;52.032;4.376;2023-02-12T01:55:07;104045.31;;;6.16;nan
70053;BME280;57398;52.032;4.376;2023-02-12T01:57:56;104043.03;;;6.12;nan
70053;BME280;57398;52.032;4.376;2023-02-12T02:00:45;104043.88;;;6.12;nan
70053;BME280;57398;52.032;4.376;2023-02-12T02:03:37;104049.03;;;6.12;nan
70053;BME280;57398;52.032;4.376;2023-02-12T02:06:29;104044.69;;;6.13;nan
70053;BME280;57398;52.032;4.376;2023-02-12T02:09:19;104042.91;;;6.13;nan
70053;BME280;57398;52.032;4.376;2023-02-12T02:12:07;104056.06;;;6.10;nan
70053;BME280;57398;52.032;4.376;2023-02-12T02:15:13;104052.75;;;6.08;nan
70053;BME280;57398;52.032;4.376;2023-02-12T02:18:06;104046.53;;;6.11;nan
70053;BME280;57398;52.032;4.376;2023-02-12T02:24:46;104043.47;;;6.05;nan
70053;BME280;57398;52.032;4.376;2023-02-12T02:27:44;104052.97;;;6.05;nan
70053;BME280;57398;52.032;4.376;2023-02-12T02:30:43;104053.06;;;6.03;nan
70053;BME280;57398;52.032;4.376;2023-02-12T02:33:40;104046.47;;;5.99;nan
70053;BME280;57398;52.032;4.376;2023-02-12T02:36:34;104046.47;;;5.99;nan
70053;BME280;57398;52.032;4.376;2023-02-12T02:39:40;104055.97;;;5.99;nan
70053;BME280;57398;52.032;4.376;2023-02-12T02:42:31;104048.63;;;5.93;nan
70053;BME280;57398;52.032;4.376;2023-02-12T02:45:28;104049.44;;;5.93;nan
70053;BME280;57398;52.032;4.376;2023-02-12T02:48:25;104044.84;;;5.98;nan
70053;BME280;57398;52.032;4.376;2023-02-12T02:51:18;104041.53;;;5.96;nan
70053;BME280;57398;52.032;4.376;2023-02-12T02:54:08;104038.63;;;6.01;nan
70053;BME280;57398;52.032;4.376;2023-02-12T02:57:02;104036.06;;;6.01;nan
70053;BME280;57398;52.032;4.376;2023-02-12T02:59:55;104033.34;;;6.02;nan
70053;BME280;57398;52.032;4.376;2023-02-12T03:02:49;104042.03;;;6.01;nan
70053;BME280;57398;52.032;4.376;2023-02-12T03:05:43;104034.69;;;6.08;nan
70053;BME280;57398;52.032;4.376;2023-02-12T03:08:35;104024.03;;;6.13;nan
70053;BME280;57398;52.032;4.376;2023-02-12T03:11:26;104019.81;;;6.12;nan
70053;BME280;57398;52.032;4.376;2023-02-12T03:14:17;104030.56;;;6.05;nan
70053;BME280;57398;52.032;4.376;2023-02-12T03:17:12;104030.47;;;6.07;nan
70053;BME280;57398;52.032;4.376;2023-02-12T03:20:05;104027.75;;;6.08;nan
70053;BME280;57398;52.032;4.376;2023-02-12T03:23:00;104022.81;;;6.05;nan
70053;BME280;57398;52.032;4.376;2023-02-12T03:25:52;104027.81;;;6.20;nan
70053;BME280;57398;52.032;4.376;2023-02-12T03:28:44;104025.63;;;6.26;nan
70053;BME280;57398;52.032;4.376;2023-02-12T03:31:38;104013.66;;;6.25;nan
70053;BME280;57398;52.032;4.376;2023-02-12T03:34:37;104005.13;;;6.36;nan
70053;BME280;57398;52.032;4.376;2023-02-12T03:37:29;104002.66;;;6.35;nan
70053;BME280;57398;52.032;4.376;2023-02-12T03:40:23;104006.78;;;6.37;nan
70053;BME280;57398;52.032;4.376;2023-02-12T03:43:19;104007.97;;;6.44;nan
70053;BME280;57398;52.032;4.376;2023-02-12T03:46:15;104010.06;;;6.39;nan
70053;BME280;57398;52.032;4.376;2023-02-12T03:49:09;104017.81;;;6.39;nan
70053;BME280;57398;52.032;4.376;2023-02-12T03:52:02;104005.13;;;6.36;nan
70053;BME280;57398;52.032;4.376;2023-02-12T03:54:51;104013.00;;;6.35;nan
70053;BME280;57398;52.032;4.376;2023-02-12T03:57:43;104013.19;;;6.32;nan
70053;BME280;57398;52.032;4.376;2023-02-12T04:00:36;104020.22;;;6.29;nan
70053;BME280;57398;52.032;4.376;2023-02-12T04:03:25;104021.31;;;6.38;nan
70053;BME280;57398;52.032;4.376;2023-02-12T04:06:20;104023.66;;;6.41;nan
70053;BME280;57398;52.032;4.376;2023-02-12T04:09:09;104023.66;;;6.41;nan
70053;BME280;57398;52.032;4.376;2023-02-12T04:12:08;104020.59;;;6.36;nan
70053;BME280;57398;52.032;4.376;2023-02-12T04:15:15;104026.47;;;6.38;nan
70053;BME280;57398;52.032;4.376;2023-02-12T04:18:13;104037.03;;;6.35;nan
70053;BME280;57398;52.032;4.376;2023-02-12T04:21:09;104040.78;;;6.31;nan
70053;BME280;57398;52.032;4.376;2023-02-12T04:24:04;104039.34;;;6.27;nan
70053;BME280;57398;52.032;4.376;2023-02-12T04:26:56;104042.75;;;6.27;nan
70053;BME280;57398;52.032;4.376;2023-02-12T04:29:50;104046.19;;;6.28;nan
70053;BME280;57398;52.032;4.376;2023-02-12T04:32:44;104050.81;;;6.23;nan
70053;BME280;57398;52.032;4.376;2023-02-12T04:35:35;104053.41;;;6.23;nan
70053;BME280;57398;52.032;4.376;2023-02-12T04:38:31;104061.16;;;6.23;nan
70053;BME280;57398;52.032;4.376;2023-02-12T04:41:21;104064.91;;;6.19;nan
70053;BME280;57398;52.032;4.376;2023-02-12T04:44:18;104061.59;;;6.17;nan
70053;BME280;57398;52.032;4.376;2023-02-12T04:47:10;104075.44;;;6.16;nan
70053;BME280;57398;52.032;4.376;2023-02-12T04:50:00;104067.91;;;6.13;nan
70053;BME280;57398;52.032;4.376;2023-02-12T04:52:48;104072.25;;;6.12;nan
70053;BME280;57398;52.032;4.376;2023-02-12T04:55:37;104074.22;;;6.08;nan
70053;BME280;57398;52.032;4.376;2023-02-12T04:58:25;104078.06;;;6.03;nan
70053;BME280;57398;52.032;4.376;2023-02-12T05:01:14;104071.38;;;6.00;nan
70053;BME280;57398;52.032;4.376;2023-02-12T05:04:03;104071.13;;;6.03;nan
70053;BME280;57398;52.032;4.376;2023-02-12T05:06:53;104073.00;;;6.01;nan
70053;BME280;57398;52.032;4.376;2023-02-12T05:09:41;104064.44;;;6.01;nan
70053;BME280;57398;52.032;4.376;2023-02-12T05:12:30;104061.53;;;5.93;nan
70053;BME280;57398;52.032;4.376;2023-02-12T05:15:18;104069.94;;;5.96;nan
70053;BME280;57398;52.032;4.376;2023-02-12T05:18:06;104063.94;;;5.96;nan
70053;BME280;57398;52.032;4.376;2023-02-12T05:20:55;104058.78;;;5.96;nan
70053;BME280;57398;52.032;4.376;2023-02-12T05:23:45;104062.28;;;5.95;nan
70053;BME280;57398;52.032;4.376;2023-02-12T05:26:33;104054.63;;;5.93;nan
70053;BME280;57398;52.032;4.376;2023-02-12T05:29:22;104057.75;;;5.98;nan
70053;BME280;57398;52.032;4.376;2023-02-12T05:32:10;104061.25;;;5.97;nan
70053;BME280;57398;52.032;4.376;2023-02-12T05:34:58;104067.44;;;5.95;nan
70053;BME280;57398;52.032;4.376;2023-02-12T05:37:46;104064.78;;;5.96;nan
70053;BME280;57398;52.032;4.376;2023-02-12T05:40:36;104064.94;;;5.93;nan
70053;BME280;57398;52.032;4.376;2023-02-12T05:43:26;104070.22;;;5.92;nan
70053;BME280;57398;52.032;4.376;2023-02-12T05:46:14;104072.19;;;5.88;nan
70053;BME280;57398;52.032;4.376;2023-02-12T05:49:03;104068.16;;;5.84;nan
70053;BME280;57398;52.032;4.376;2023-02-12T05:51:51;104072.41;;;5.85;nan
70053;BME280;57398;52.032;4.376;2023-02-12T05:54:39;104072.19;;;5.88;nan
70053;BME280;57398;52.032;4.376;2023-02-12T05:57:29;104072.19;;;5.88;nan
70053;BME280;57398;52.032;4.376;2023-02-12T06:00:18;104070.31;;;5.90;nan
70053;BME280;57398;52.032;4.376;2023-02-12T06:03:06;104072.09;;;5.90;nan
70053;BME280;57398;52.032;4.376;2023-02-12T06:05:54;104072.19;;;5.88;nan
70053;BME280;57398;52.032;4.376;2023-02-12T06:08:43;104068.06;;;5.85;nan
70053;BME280;57398;52.032;4.376;2023-02-12T06:11:31;104071.47;;;5.86;nan
70053;BME280;57398;52.032;4.376;2023-02-12T06:14:20;104070.75;;;5.84;nan
70053;BME280;57398;52.032;4.376;2023-02-12T06:17:09;104074.34;;;5.81;nan
70053;BME280;57398;52.032;4.376;2023-02-12T06:19:57;104069.53;;;5.77;nan
70053;BME280;57398;52.032;4.376;2023-02-12T06:22:45;104065.31;;;5.76;nan
70053;BME280;57398;52.032;4.376;2023-02-12T06:25:33;104066.03;;;5.78;nan
70053;BME280;57398;52.032;4.376;2023-02-12T06:28:21;104071.19;;;5.78;nan
70053;BME280;57398;52.032;4.376;2023-02-12T06:31:18;104067.88;;;5.76;nan
70053;BME280;57398;52.032;4.376;2023-02-12T06:34:10;104068.59;;;5.78;nan
70053;BME280;57398;52.032;4.376;2023-02-12T06:36:59;104062.81;;;5.74;nan
70053;BME280;57398;52.032;4.376;2023-02-12T06:39:47;104069.97;;;5.71;nan
70053;BME280;57398;52.032;4.376;2023-02-12T06:42:35;104075.13;;;5.71;nan
70053;BME280;57398;52.032;4.376;2023-02-12T06:45:23;104075.94;;;5.71;nan
70053;BME280;57398;52.032;4.376;2023-02-12T06:48:13;104073.47;;;5.70;nan
70053;BME280;57398;52.032;4.376;2023-02-12T06:51:05;104071.81;;;5.69;nan
70053;BME280;57398;52.032;4.376;2023-02-12T06:53:55;104072.72;;;5.67;nan
70053;BME280;57398;52.032;4.376;2023-02-12T06:56:43;104079.75;;;5.65;nan
70053;BME280;57398;52.032;4.376;2023-02-12T06:59:31;104088.34;;;5.66;nan
70053;BME280;57398;52.032;4.376;2023-02-12T07:02:20;104084.00;;;5.66;nan
70053;BME280;57398;52.032;4.376;2023-02-12T07:05:10;104090.78;;;5.67;nan
70053;BME280;57398;52.032;4.376;2023-02-12T07:07:58;104091.63;;;5.68;nan
70053;BME280;57398;52.032;4.376;2023-02-12T07:10:47;104103.59;;;5.69;nan
70053;BME280;57398;52.032;4.376;2023-02-12T07:13:36;104097.63;;;5.69;nan
70053;BME280;57398;52.032;4.376;2023-02-12T07:16:25;104100.91;;;5.71;nan
70053;BME280;57398;52.032;4.376;2023-02-12T07:19:14;104103.50;;;5.71;nan
70053;BME280;57398;52.032;4.376;2023-02-12T07:22:04;104108.44;;;5.74;nan
70053;BME280;57398;52.032;4.376;2023-02-12T07:24:52;104112.66;;;5.75;nan
70053;BME280;57398;52.032;4.376;2023-02-12T07:27:40;104110.06;;;5.75;nan
70053;BME280;57398;52.032;4.376;2023-02-12T07:30:28;104114.31;;;5.76;nan
70053;BME280;57398;52.032;4.376;2023-02-12T07:33:17;104123.81;;;5.75;nan
70053;BME280;57398;52.032;4.376;2023-02-12T07:36:08;104128.84;;;5.77;nan
70053;BME280;57398;52.032;4.376;2023-02-12T07:38:58;104129.38;;;5.82;nan
70053;BME280;57398;52.032;4.376;2023-02-12T07:41:47;104125.03;;;5.82;nan
70053;BME280;57398;52.032;4.376;2023-02-12T07:44:35;104123.06;;;5.86;nan
70053;BME280;57398;52.032;4.376;2023-02-12T07:47:23;104126.16;;;5.91;nan
70053;BME280;57398;52.032;4.376;2023-02-12T07:50:11;104132.34;;;5.88;nan
70053;BME280;57398;52.032;4.376;2023-02-12T07:52:59;104126.34;;;5.88;nan
70053;BME280;57398;52.032;4.376;2023-02-12T07:55:49;104125.31;;;5.91;nan
70053;BME280;57398;52.032;4.376;2023-02-12T07:58:39;104133.91;;;5.91;nan
70053;BME280;57398;52.032;4.376;2023-02-12T08:01:29;104128.34;;;5.97;nan
70053;BME280;57398;52.032;4.376;2023-02-12T08:04:19;104130.59;;;6.02;nan
70053;BME280;57398;52.032;4.376;2023-02-12T08:07:08;104125.84;;;6.08;nan
70053;BME280;57398;52.032;4.376;2023-02-12T08:09:56;104131.00;;;6.08;nan
70053;BME280;57398;52.032;4.376;2023-02-12T08:12:46;104131.50;;;6.14;nan
70053;BME280;57398;52.032;4.376;2023-02-12T08:15:34;104134.47;;;6.20;nan
70053;BME280;57398;52.032;4.376;2023-02-12T08:18:22;104134.16;;;6.25;nan
70053;BME280;57398;52.032;4.376;2023-02-12T08:21:11;104124.34;;;6.30;nan
70053;BME280;57398;52.032;4.376;2023-02-12T08:24:00;104126.47;;;6.36;nan
70053;BME280;57398;52.032;4.376;2023-02-12T08:26:49;104125.94;;;6.44;nan
70053;BME280;57398;52.032;4.376;2023-02-12T08:29:38;104132.31;;;6.51;nan
70053;BME280;57398;52.032;4.376;2023-02-12T08:32:27;104123.91;;;6.60;nan
70053;BME280;57398;52.032;4.376;2023-02-12T08:35:16;104126.97;;;6.65;nan
70053;BME280;57398;52.032;4.376;2023-02-12T08:38:04;104127.69;;;6.67;nan
70053;BME280;57398;52.032;4.376;2023-02-12T08:40:52;104127.25;;;6.74;nan
70053;BME280;57398;52.032;4.376;2023-02-12T08:43:43;104134.34;;;6.83;nan
70053;BME280;57398;52.032;4.376;2023-02-12T08:46:34;104128.84;;;6.87;nan
70053;BME280;57398;52.032;4.376;2023-02-12T08:49:25;104130.22;;;6.91;nan
70053;BME280;57398;52.032;4.376;2023-02-12T08:52:13;104128.97;;;6.97;nan
70053;BME280;57398;52.032;4.376;2023-02-12T08:55:01;104138.88;;;7.03;nan
70053;BME280;57398;52.032;4.376;2023-02-12T08:57:49;104133.47;;;7.06;nan
70053;BME280;57398;52.032;4.376;2023-02-12T09:00:39;104143.56;;;7.09;nan
70053;BME280;57398;52.032;4.376;2023-02-12T09:03:28;104154.19;;;7.18;nan
70053;BME280;57398;52.032;4.376;2023-02-12T09:06:19;104150.28;;;7.23;nan
70053;BME280;57398;52.032;4.376;2023-02-12T09:09:07;104150.91;;;7.27;nan
70053;BME280;57398;52.032;4.376;2023-02-12T09:11:55;104151.28;;;7.33;nan
70053;BME280;57398;52.032;4.376;2023-02-12T09:14:44;104153.97;;;7.32;nan
70053;BME280;57398;52.032;4.376;2023-02-12T09:17:32;104154.31;;;7.39;nan
70053;BME280;57398;52.032;4.376;2023-02-12T09:20:21;104158.19;;;7.44;nan
70053;BME280;57398;52.032;4.376;2023-02-12T09:23:11;104155.75;;;7.43;nan
70053;BME280;57398;52.032;4.376;2023-02-12T09:26:02;104160.59;;;7.47;nan
70053;BME280;57398;52.032;4.376;2023-02-12T09:28:53;104158.94;;;7.58;nan
70053;BME280;57398;52.032;4.376;2023-02-12T09:31:41;104143.19;;;7.61;nan
70053;BME280;57398;52.032;4.376;2023-02-12T09:34:29;104160.34;;;7.62;nan
70053;BME280;57398;52.032;4.376;2023-02-12T09:37:21;104162.69;;;7.65;nan
70053;BME280;57398;52.032;4.376;2023-02-12T09:43:10;104154.84;;;7.89;nan
70053;BME280;57398;52.032;4.376;2023-02-12T09:46:08;104153.06;;;7.89;nan
70053;BME280;57398;52.032;4.376;2023-02-12T09:49:07;104148.69;;;7.90;nan
70053;BME280;57398;52.032;4.376;2023-02-12T09:51:57;104155.53;;;7.91;nan
70053;BME280;57398;52.032;4.376;2023-02-12T09:54:47;104153.66;;;7.93;nan
70053;BME280;57398;52.032;4.376;2023-02-12T09:57:36;104150.38;;;7.91;nan
70053;BME280;57398;52.032;4.376;2023-02-12T10:00:27;104152.59;;;7.95;nan
70053;BME280;57398;52.032;4.376;2023-02-12T10:03:17;104151.06;;;8.04;nan
70053;BME280;57398;52.032;4.376;2023-02-12T10:06:07;104155.03;;;8.08;nan
70053;BME280;57398;52.032;4.376;2023-02-12T10:09:04;104155.28;;;8.16;nan
70053;BME280;57398;52.032;4.376;2023-02-12T10:12:03;104159.19;;;8.11;nan
70053;BME280;57398;52.032;4.376;2023-02-12T10:15:04;104155.72;;;8.22;nan
70053;BME280;57398;52.032;4.376;2023-02-12T10:18:00;104147.13;;;8.21;nan
70053;BME280;57398;52.032;4.376;2023-02-12T10:20:56;104145.81;;;8.27;nan
70053;BME280;57398;52.032;4.376;2023-02-12T10:24:19;104146.88;;;8.24;nan
70053;BME280;57398;52.032;4.376;2023-02-12T10:27:14;104153.56;;;8.38;nan
70053;BME280;57398;52.032;4.376;2023-02-12T10:30:04;104154.31;;;8.40;nan
70053;BME280;57398;52.032;4.376;2023-02-12T10:33:03;104145.47;;;8.43;nan
70053;BME280;57398;52.032;4.376;2023-02-12T10:35:55;104146.38;;;8.53;nan
70053;BME280;57398;52.032;4.376;2023-02-12T10:38:49;104156.03;;;8.51;nan
70053;BME280;57398;52.032;4.376;2023-02-12T10:41:43;104160.41;;;8.50;nan
70053;BME280;57398;52.032;4.376;2023-02-12T10:44:35;104152.59;;;8.62;nan
70053;BME280;57398;52.032;4.376;2023-02-12T10:47:23;104155.91;;;8.64;nan
70053;BME280;57398;52.032;4.376;2023-02-12T10:50:19;104149.06;;;8.63;nan
70053;BME280;57398;52.032;4.376;2023-02-12T10:53:15;104145.91;;;8.59;nan
70053;BME280;57398;52.032;4.376;2023-02-12T10:56:17;104146.22;;;8.66;nan
70053;BME280;57398;52.032;4.376;2023-02-12T10:59:21;104146.09;;;8.67;nan
70053;BME280;57398;52.032;4.376;2023-02-12T11:02:21;104156.19;;;8.70;nan
70053;BME280;57398;52.032;4.376;2023-02-12T11:05:22;104155.81;;;8.75;nan
70053;BME280;57398;52.032;4.376;2023-02-12T11:08:27;104154.44;;;8.71;nan
70053;BME280;57398;52.032;4.376;2023-02-12T11:11:20;104148.31;;;8.72;nan
70053;BME280;57398;52.032;4.376;2023-02-12T11:14:17;104147.06;;;8.66;nan
70053;BME280;57398;52.032;4.376;2023-02-12T11:17:23;104144.84;;;8.62;nan
70053;BME280;57398;52.032;4.376;2023-02-12T11:20:22;104135.16;;;8.64;nan
70053;BME280;57398;52.032;4.376;2023-02-12T11:23:23;104147.59;;;8.70;nan
70053;BME280;57398;52.032;4.376;2023-02-12T11:26:24;104145.84;;;8.70;nan
70053;BME280;57398;52.032;4.376;2023-02-12T11:29:18;104147.13;;;8.76;nan
70053;BME280;57398;52.032;4.376;2023-02-12T11:32:14;104139.38;;;8.65;nan
70053;BME280;57398;52.032;4.376;2023-02-12T11:35:12;104146.09;;;8.67;nan
70053;BME280;57398;52.032;4.376;2023-02-12T11:38:01;104143.97;;;8.61;nan
70053;BME280;57398;52.032;4.376;2023-02-12T11:40:53;104134.13;;;8.55;nan
70053;BME280;57398;52.032;4.376;2023-02-12T11:43:43;104139.06;;;8.58;nan
70053;BME280;57398;52.032;4.376;2023-02-12T11:46:32;104137.16;;;8.60;nan
70053;BME280;57398;52.032;4.376;2023-02-12T11:49:22;104134.78;;;8.68;nan
70053;BME280;57398;52.032;4.376;2023-02-12T11:52:20;104133.72;;;8.71;nan
70053;BME280;57398;52.032;4.376;2023-02-12T11:55:19;104126.88;;;8.70;nan
70053;BME280;57398;52.032;4.376;2023-02-12T11:58:14;104132.97;;;8.80;nan
70053;BME280;57398;52.032;4.376;2023-02-12T12:01:11;104129.09;;;8.74;nan
70053;BME280;57398;52.032;4.376;2023-02-12T12:04:03;104131.34;;;8.68;nan
70053;BME280;57398;52.032;4.376;2023-02-12T12:06:58;104129.41;;;8.81;nan
70053;BME280;57398;52.032;4.376;2023-02-12T12:09:54;104125.69;;;8.74;nan
70053;BME280;57398;52.032;4.376;2023-02-12T12:12:49;104126.38;;;8.76;nan
70053;BME280;57398;52.032;4.376;2023-02-12T12:15:42;104121.75;;;8.79;nan
70053;BME280;57398;52.032;4.376;2023-02-12T12:18:54;104131.53;;;8.87;nan
70053;BME280;57398;52.032;4.376;2023-02-12T12:22:03;104121.47;;;8.94;nan
70053;BME280;57398;52.032;4.376;2023-02-12T12:24:57;104110.34;;;8.82;nan
70053;BME280;57398;52.032;4.376;2023-02-12T12:27:56;104117.03;;;8.85;nan
70053;BME280;57398;52.032;4.376;2023-02-12T12:31:00;104110.94;;;8.95;nan
70053;BME280;57398;52.032;4.376;2023-02-12T12:33:50;104106.16;;;8.91;nan
70053;BME280;57398;52.032;4.376;2023-02-12T12:36:59;104115.84;;;8.89;nan
70053;BME280;57398;52.032;4.376;2023-02-12T12:40:03;104110.72;;;8.98;nan
70053;BME280;57398;52.032;4.376;2023-02-12T12:43:03;104111.53;;;8.78;nan
70053;BME280;57398;52.032;4.376;2023-02-12T12:46:06;104106.72;;;8.94;nan
70053;BME280;57398;52.032;4.376;2023-02-12T12:49:08;104098.06;;;8.84;nan
70053;BME280;57398;52.032;4.376;2023-02-12T12:52:16;104104.19;;;8.83;nan
70053;BME280;57398;52.032;4.376;2023-02-12T12:55:42;104100.03;;;8.71;nan
70053;BME280;57398;52.032;4.376;2023-02-12T12:58:42;104092.56;;;8.77;nan
70053;BME280;57398;52.032;4.376;2023-02-12T13:01:53;104087.81;;;8.83;nan
70053;BME280;57398;52.032;4.376;2023-02-12T13:05:00;104093.88;;;8.72;nan
70053;BME280;57398;52.032;4.376;2023-02-12T13:08:02;104082.75;;;8.81;nan
70053;BME280;57398;52.032;4.376;2023-02-12T13:10:59;104091.88;;;8.75;nan
70053;BME280;57398;52.032;4.376;2023-02-12T13:13:53;104079.63;;;8.77;nan
70053;BME280;57398;52.032;4.376;2023-02-12T13:16:46;104083.03;;;8.78;nan
70053;BME280;57398;52.032;4.376;2023-02-12T13:19:44;104076.44;;;8.74;nan
70053;BME280;57398;52.032;4.376;2023-02-12T13:22:37;104074.97;;;8.81;nan
70053;BME280;57398;52.032;4.376;2023-02-12T13:25:30;104077.84;;;8.78;nan
70053;BME280;57398;52.032;4.376;2023-02-12T13:28:30;104072.66;;;8.78;nan
70053;BME280;57398;52.032;4.376;2023-02-12T13:31:21;104073.47;;;8.78;nan
70053;BME280;57398;52.032;4.376;2023-02-12T13:34:20;104060.31;;;8.70;nan
70053;BME280;57398;52.032;4.376;2023-02-12T13:37:14;104071.97;;;8.76;nan
70053;BME280;57398;52.032;4.376;2023-02-12T13:40:06;104061.66;;;8.65;nan
70053;BME280;57398;52.032;4.376;2023-02-12T13:43:00;104061.84;;;8.73;nan
70053;BME280;57398;52.032;4.376;2023-02-12T13:45:58;104065.63;;;8.69;nan
70053;BME280;57398;52.032;4.376;2023-02-12T13:48:55;104055.06;;;8.60;nan
70053;BME280;57398;52.032;4.376;2023-02-12T13:51:49;104052.63;;;8.59;nan
70053;BME280;57398;52.032;4.376;2023-02-12T13:54:50;104056.34;;;8.66;nan
70053;BME280;57398;52.032;4.376;2023-02-12T13:57:39;104057.47;;;8.52;nan
70053;BME280;57398;52.032;4.376;2023-02-12T14:00:57;104049.75;;;8.62;nan
70053;BME280;57398;52.032;4.376;2023-02-12T14:03:46;104052.03;;;8.55;nan
70053;BME280;57398;52.032;4.376;2023-02-12T14:06:35;104049.75;;;8.41;nan
70053;BME280;57398;52.032;4.376;2023-02-12T14:09:28;104042.41;;;8.46;nan
70053;BME280;57398;52.032;4.376;2023-02-12T14:12:30;104039.56;;;8.49;nan
70053;BME280;57398;52.032;4.376;2023-02-12T14:15:31;104039.84;;;8.46;nan
70053;BME280;57398;52.032;4.376;2023-02-12T14:18:28;104036.53;;;8.44;nan
70053;BME280;57398;52.032;4.376;2023-02-12T14:21:42;104041.72;;;8.44;nan
70053;BME280;57398;52.032;4.376;2023-02-12T14:24:49;104033.56;;;8.49;nan
70053;BME280;57398;52.032;4.376;2023-02-12T14:27:43;104037.84;;;8.38;nan
70053;BME280;57398;52.032;4.376;2023-02-12T14:30:33;104027.97;;;8.32;nan
70053;BME280;57398;52.032;4.376;2023-02-12T14:33:26;104031.63;;;8.30;nan
70053;BME280;57398;52.032;4.376;2023-02-12T14:36:18;104024.69;;;8.30;nan
70053;BME280;57398;52.032;4.376;2023-02-12T14:39:28;104024.91;;;8.38;nan
70053;BME280;57398;52.032;4.376;2023-02-12T14:42:42;104019.75;;;8.27;nan
70053;BME280;57398;52.032;4.376;2023-02-12T14:45:33;104034.44;;;8.27;nan
70053;BME280;57398;52.032;4.376;2023-02-12T14:48:49;104026.88;;;8.14;nan
70053;BME280;57398;52.032;4.376;2023-02-12T14:51:42;104026.06;;;8.13;nan
70053;BME280;57398;52.032;4.376;2023-02-12T14:54:36;104032.41;;;8.09;nan
70053;BME280;57398;52.032;4.376;2023-02-12T14:57:29;104024.88;;;8.06;nan
70053;BME280;57398;52.032;4.376;2023-02-12T15:00:23;104023.94;;;8.07;nan
70053;BME280;57398;52.032;4.376;2023-02-12T15:03:19;104026.53;;;8.07;nan
70053;BME280;57398;52.032;4.376;2023-02-12T15:06:15;104019.13;;;8.03;nan
70053;BME280;57398;52.032;4.376;2023-02-12T15:09:08;104022.53;;;8.03;nan
70053;BME280;57398;52.032;4.376;2023-02-12T15:12:02;104019.53;;;7.87;nan
70053;BME280;57398;52.032;4.376;2023-02-12T15:14:58;104020.50;;;7.74;nan
70053;BME280;57398;52.032;4.376;2023-02-12T15:17:55;104020.34;;;7.87;nan
70053;BME280;57398;52.032;4.376;2023-02-12T15:20:47;104020.59;;;7.84;nan
70053;BME280;57398;52.032;4.376;2023-02-12T15:23:40;104025.19;;;7.81;nan
70053;BME280;57398;52.032;4.376;2023-02-12T15:26:32;104021.78;;;7.80;nan
70053;BME280;57398;52.032;4.376;2023-02-12T15:29:23;104021.91;;;7.79;nan
70053;BME280;57398;52.032;4.376;2023-02-12T15:32:17;104018.63;;;7.76;nan
70053;BME280;57398;52.032;4.376;2023-02-12T15:35:20;104015.00;;;7.68;nan
70053;BME280;57398;52.032;4.376;2023-02-12T15:38:18;104024.38;;;7.69;nan
70053;BME280;57398;52.032;4.376;2023-02-12T15:41:23;104023.13;;;7.63;nan
70053;BME280;57398;52.032;4.376;2023-02-12T15:44:22;104016.41;;;7.61;nan
70053;BME280;57398;52.032;4.376;2023-02-12T15:47:12;104015.22;;;7.65;nan
70053;BME280;57398;52.032;4.376;2023-02-12T15:50:02;104021.47;;;7.62;nan